createdAt,value
2018-02-26T00:00:54.703Z,0
2018-02-26T00:01:55.127Z,0
2018-02-26T00:02:55.253Z,0
2018-02-26T00:03:55.043Z,0
2018-02-26T00:04:55.806Z,0
2018-02-26T00:05:55.666Z,0
2018-02-26T00:06:56.038Z,0
2018-02-26T00:07:56.475Z,0
2018-02-26T00:08:56.856Z,0
2018-02-26T00:09:56.424Z,0
2018-02-26T00:10:56.802Z,0
2018-02-26T00:11:57.188Z,0
2018-02-26T00:12:57.280Z,0
2018-02-26T00:13:57.593Z,0
2018-02-26T00:14:57.637Z,0
2018-02-26T00:15:57.387Z,0
2018-02-26T00:16:57.748Z,0
2018-02-26T00:17:57.869Z,0
2018-02-26T00:18:57.817Z,0
2018-02-26T00:19:58.685Z,0
2018-02-26T00:20:58.310Z,0
2018-02-26T00:21:58.492Z,0
2018-02-26T00:22:58.641Z,0
2018-02-26T00:23:58.728Z,0
2018-02-26T00:24:59.209Z,0
2018-02-26T00:25:59.842Z,0
2018-02-26T00:26:59.711Z,0
2018-02-26T00:28:00.186Z,0
2018-02-26T00:28:59.923Z,0
2018-02-26T00:30:00.376Z,0
2018-02-26T00:31:00.649Z,0
2018-02-26T00:32:01.273Z,0
2018-02-26T00:33:01.402Z,0
2018-02-26T00:34:01.487Z,0
2018-02-26T00:35:01.337Z,0
2018-02-26T00:36:01.577Z,0
2018-02-26T00:37:01.831Z,0
2018-02-26T00:38:02.163Z,0
2018-02-26T00:39:02.411Z,0
2018-02-26T00:40:02.653Z,0
2018-02-26T00:41:02.844Z,0
2018-02-26T00:42:02.983Z,0
2018-02-26T00:43:03.319Z,0
2018-02-26T00:44:03.356Z,0
2018-02-26T00:45:03.129Z,0
2018-02-26T00:46:03.592Z,0
2018-02-26T00:47:03.546Z,0
2018-02-26T00:48:03.344Z,0
2018-02-26T00:49:03.829Z,0
2018-02-26T00:50:03.980Z,0
2018-02-26T00:51:04.318Z,0
2018-02-26T00:52:04.076Z,0
2018-02-26T00:53:04.749Z,0
2018-02-26T00:54:04.754Z,0
2018-02-26T00:55:04.493Z,0
2018-02-26T00:56:04.482Z,0
2018-02-26T00:57:04.568Z,0
2018-02-26T00:58:05.179Z,0
2018-02-26T00:59:05.143Z,0
2018-02-26T01:00:11.814Z,0
2018-02-26T01:01:04.905Z,0
2018-02-26T01:02:05.083Z,0
2018-02-26T01:03:05.685Z,0
2018-02-26T01:04:05.478Z,0
2018-02-26T01:05:05.349Z,0
2018-02-26T01:06:06.095Z,0
2018-02-26T01:07:05.758Z,0
2018-02-26T01:08:05.770Z,0
2018-02-26T01:09:06.424Z,0
2018-02-26T01:10:06.848Z,0
2018-02-26T01:11:06.114Z,0
2018-02-26T01:12:06.811Z,0
2018-02-26T01:13:06.110Z,0
2018-02-26T01:14:08.190Z,0
2018-02-26T01:15:06.667Z,0
2018-02-26T01:16:07.364Z,0
2018-02-26T01:17:07.393Z,0
2018-02-26T01:18:07.298Z,0
2018-02-26T01:19:07.754Z,0
2018-02-26T01:20:07.881Z,0
2018-02-26T01:21:07.707Z,0
2018-02-26T01:22:07.895Z,0
2018-02-26T01:23:08.051Z,0
2018-02-26T01:24:07.272Z,0
2018-02-26T01:25:07.715Z,0
2018-02-26T01:26:07.943Z,0
2018-02-26T01:27:08.475Z,0
2018-02-26T01:28:08.205Z,0
2018-02-26T01:29:08.626Z,0
2018-02-26T01:30:09.210Z,0
2018-02-26T01:31:09.326Z,0
2018-02-26T01:32:09.699Z,0
2018-02-26T01:33:09.856Z,0
2018-02-26T01:34:10.313Z,0
2018-02-26T01:35:10.451Z,0
2018-02-26T01:36:10.902Z,0
2018-02-26T01:37:10.901Z,0
2018-02-26T01:38:11.612Z,0
2018-02-26T01:39:11.765Z,0
2018-02-26T01:40:11.907Z,0
2018-02-26T01:41:12.438Z,0
2018-02-26T01:42:11.869Z,0
2018-02-26T01:43:11.806Z,0
2018-02-26T01:44:11.793Z,0
2018-02-26T01:45:12.293Z,0
2018-02-26T01:46:12.460Z,0
2018-02-26T01:47:12.386Z,0
2018-02-26T01:48:12.175Z,0
2018-02-26T01:49:12.405Z,0
2018-02-26T01:50:12.374Z,0
2018-02-26T01:51:12.734Z,0
2018-02-26T01:52:12.720Z,0
2018-02-26T01:53:12.400Z,0
2018-02-26T01:54:12.855Z,0
2018-02-26T01:55:12.369Z,0
2018-02-26T01:56:13.034Z,0
2018-02-26T01:57:13.148Z,0
2018-02-26T01:58:12.780Z,0
2018-02-26T01:59:13.381Z,0
2018-02-26T02:00:19.754Z,0
2018-02-26T02:01:14.299Z,0
2018-02-26T02:02:13.636Z,0
2018-02-26T02:03:13.835Z,0
2018-02-26T02:04:13.932Z,0
2018-02-26T02:05:14.079Z,0
2018-02-26T02:06:14.385Z,0
2018-02-26T02:07:14.544Z,0
2018-02-26T02:08:14.978Z,0
2018-02-26T02:09:15.488Z,0
2018-02-26T02:10:15.161Z,0
2018-02-26T02:11:15.082Z,0
2018-02-26T02:12:15.839Z,0
2018-02-26T02:13:15.921Z,0
2018-02-26T02:14:15.875Z,0
2018-02-26T02:15:16.221Z,0
2018-02-26T02:16:16.340Z,0
2018-02-26T02:17:16.491Z,0
2018-02-26T02:18:16.892Z,0
2018-02-26T02:19:17.383Z,0
2018-02-26T02:20:16.908Z,0
2018-02-26T02:21:17.523Z,0
2018-02-26T02:22:17.357Z,0
2018-02-26T02:23:17.331Z,0
2018-02-26T02:24:17.758Z,0
2018-02-26T02:25:17.193Z,0
2018-02-26T02:26:17.953Z,0
2018-02-26T02:27:18.020Z,0
2018-02-26T02:28:17.261Z,0
2018-02-26T02:29:18.044Z,0
2018-02-26T02:30:18.154Z,0
2018-02-26T02:31:18.705Z,0
2018-02-26T02:32:18.556Z,0
2018-02-26T02:33:18.339Z,0
2018-02-26T02:34:18.593Z,0
2018-02-26T02:35:17.966Z,0
2018-02-26T02:36:18.559Z,0
2018-02-26T02:37:18.813Z,0
2018-02-26T02:38:18.700Z,0
2018-02-26T02:39:18.530Z,0
2018-02-26T02:40:19.000Z,0
2018-02-26T02:41:19.527Z,0
2018-02-26T02:42:19.269Z,0
2018-02-26T02:43:19.487Z,0
2018-02-26T02:44:19.400Z,0
2018-02-26T02:45:19.740Z,0
2018-02-26T02:46:19.683Z,0
2018-02-26T02:47:19.872Z,0
2018-02-26T02:48:19.995Z,0
2018-02-26T02:49:20.161Z,0
2018-02-26T02:50:20.021Z,0
2018-02-26T02:51:20.392Z,0
2018-02-26T02:52:20.430Z,0
2018-02-26T02:53:20.331Z,0
2018-02-26T02:54:20.436Z,0
2018-02-26T02:55:21.017Z,0
2018-02-26T02:56:21.037Z,0
2018-02-26T02:57:21.018Z,0
2018-02-26T02:58:21.044Z,0
2018-02-26T02:59:21.069Z,0
2018-02-26T03:00:21.205Z,0
2018-02-26T03:01:21.245Z,0
2018-02-26T03:02:21.261Z,0
2018-02-26T03:03:20.826Z,0
2018-02-26T03:04:21.306Z,0
2018-02-26T03:05:21.018Z,0
2018-02-26T03:06:21.310Z,0
2018-02-26T03:07:21.914Z,0
2018-02-26T03:08:21.617Z,0
2018-02-26T03:09:21.895Z,0
2018-02-26T03:10:21.660Z,0
2018-02-26T03:11:21.646Z,0
2018-02-26T03:12:21.655Z,0
2018-02-26T03:13:21.926Z,0
2018-02-26T03:14:22.262Z,0
2018-02-26T03:15:21.987Z,0
2018-02-26T03:16:22.278Z,0
2018-02-26T03:17:22.300Z,0
2018-02-26T03:18:22.046Z,0
2018-02-26T03:19:21.778Z,0
2018-02-26T03:20:22.633Z,0
2018-02-26T03:21:21.818Z,0
2018-02-26T03:22:22.663Z,0
2018-02-26T03:23:22.666Z,0
2018-02-26T03:24:22.693Z,0
2018-02-26T03:25:22.427Z,0
2018-02-26T03:26:22.744Z,0
2018-02-26T03:27:22.749Z,0
2018-02-26T03:28:22.749Z,0
2018-02-26T03:29:22.501Z,0
2018-02-26T03:30:22.520Z,0
2018-02-26T03:31:22.829Z,0
2018-02-26T03:32:22.824Z,0
2018-02-26T03:33:22.844Z,0
2018-02-26T03:34:22.588Z,0
2018-02-26T03:35:22.621Z,0
2018-02-26T03:36:22.951Z,0
2018-02-26T03:37:23.550Z,0
2018-02-26T03:38:22.985Z,0
2018-02-26T03:39:23.805Z,0
2018-02-26T03:40:23.273Z,0
2018-02-26T03:41:23.304Z,0
2018-02-26T03:42:24.028Z,0
2018-02-26T03:43:24.148Z,0
2018-02-26T03:44:24.410Z,0
2018-02-26T03:45:24.295Z,0
2018-02-26T03:46:23.423Z,0
2018-02-26T03:47:23.968Z,0
2018-02-26T03:48:24.515Z,0
2018-02-26T03:49:24.515Z,0
2018-02-26T03:50:24.276Z,0
2018-02-26T03:51:24.560Z,0
2018-02-26T03:52:24.565Z,0
2018-02-26T03:53:24.587Z,0
2018-02-26T03:54:24.618Z,0
2018-02-26T03:55:24.064Z,0
2018-02-26T03:56:25.034Z,0
2018-02-26T03:57:24.816Z,0
2018-02-26T03:58:25.030Z,0
2018-02-26T03:59:24.789Z,0
2018-02-26T04:00:47.270Z,0
2018-02-26T04:01:47.249Z,0
2018-02-26T04:02:46.838Z,0
2018-02-26T04:03:47.057Z,0
2018-02-26T04:04:46.781Z,0
2018-02-26T04:05:47.671Z,0
2018-02-26T04:06:47.684Z,0
2018-02-26T04:07:47.658Z,0
2018-02-26T04:08:47.727Z,0
2018-02-26T04:09:47.661Z,0
2018-02-26T04:10:47.856Z,0
2018-02-26T04:11:48.359Z,0
2018-02-26T04:12:48.267Z,0
2018-02-26T04:13:48.302Z,0
2018-02-26T04:14:48.822Z,0
2018-02-26T04:15:48.804Z,0
2018-02-26T04:16:48.904Z,0
2018-02-26T04:17:48.555Z,0
2018-02-26T04:18:48.535Z,0
2018-02-26T04:19:48.639Z,0
2018-02-26T04:20:49.403Z,0
2018-02-26T04:21:49.128Z,0
2018-02-26T04:22:49.598Z,0
2018-02-26T04:23:49.528Z,0
2018-02-26T04:24:49.840Z,0
2018-02-26T04:25:49.376Z,0
2018-02-26T04:26:49.340Z,0
2018-02-26T04:27:50.007Z,0
2018-02-26T04:28:51.143Z,0
2018-02-26T04:29:49.845Z,0
2018-02-26T04:30:50.296Z,0
2018-02-26T04:31:51.032Z,0
2018-02-26T04:32:50.930Z,0
2018-02-26T04:33:51.631Z,0
2018-02-26T04:34:52.164Z,0
2018-02-26T04:35:51.530Z,0
2018-02-26T04:36:51.359Z,0
2018-02-26T04:37:51.673Z,0
2018-02-26T04:38:51.704Z,0
2018-02-26T04:39:52.606Z,0
2018-02-26T04:40:51.641Z,0
2018-02-26T04:41:51.774Z,0
2018-02-26T04:42:51.688Z,0
2018-02-26T04:43:52.173Z,0
2018-02-26T04:44:52.194Z,0
2018-02-26T04:45:52.007Z,0
2018-02-26T04:46:51.882Z,0
2018-02-26T04:47:51.949Z,0
2018-02-26T04:48:52.500Z,0
2018-02-26T04:49:52.486Z,0
2018-02-26T04:50:52.141Z,0
2018-02-26T04:51:52.336Z,0
2018-02-26T04:52:52.079Z,0
2018-02-26T04:53:52.235Z,0
2018-02-26T04:54:52.220Z,0
2018-02-26T04:55:52.498Z,0
2018-02-26T04:56:52.869Z,0
2018-02-26T04:57:52.615Z,0
2018-02-26T04:58:52.769Z,0
2018-02-26T04:59:53.450Z,0
2018-02-26T05:00:53.496Z,0
2018-02-26T05:01:53.307Z,0
2018-02-26T05:02:53.744Z,0
2018-02-26T05:03:53.948Z,0
2018-02-26T05:04:54.094Z,0
2018-02-26T05:05:53.974Z,0
2018-02-26T05:06:54.839Z,0
2018-02-26T05:07:55.272Z,0
2018-02-26T05:08:55.292Z,0
2018-02-26T05:09:55.442Z,0
2018-02-26T05:10:55.374Z,0
2018-02-26T05:11:55.136Z,0
2018-02-26T05:12:55.317Z,0
2018-02-26T05:13:55.487Z,0
2018-02-26T05:14:55.877Z,0
2018-02-26T05:15:56.320Z,0
2018-02-26T05:16:56.376Z,0
2018-02-26T05:17:56.336Z,0
2018-02-26T05:18:56.308Z,0
2018-02-26T05:19:56.294Z,0
2018-02-26T05:20:56.446Z,0
2018-02-26T05:21:56.700Z,0
2018-02-26T05:22:56.884Z,0
2018-02-26T05:23:56.939Z,0
2018-02-26T05:24:56.891Z,0
2018-02-26T05:25:57.329Z,0
2018-02-26T05:26:57.898Z,0
2018-02-26T05:27:58.115Z,0
2018-02-26T05:28:58.573Z,0
2018-02-26T05:29:58.584Z,0
2018-02-26T05:30:58.512Z,0
2018-02-26T05:31:59.116Z,0
2018-02-26T05:32:59.377Z,0
2018-02-26T05:33:59.171Z,4
2018-02-26T05:34:59.969Z,0
2018-02-26T05:36:00.113Z,0
2018-02-26T05:36:59.157Z,4
2018-02-26T05:37:59.756Z,0
2018-02-26T05:38:59.454Z,4
2018-02-26T05:40:00.627Z,4
2018-02-26T05:41:01.725Z,4
2018-02-26T05:42:00.476Z,4
2018-02-26T05:43:00.084Z,4
2018-02-26T05:44:00.229Z,4
2018-02-26T05:45:00.611Z,8
2018-02-26T05:46:00.155Z,12
2018-02-26T05:47:00.639Z,12
2018-02-26T05:48:00.971Z,16
2018-02-26T05:49:00.772Z,20
2018-02-26T05:50:00.860Z,20
2018-02-26T05:51:01.826Z,24
2018-02-26T05:52:01.743Z,28
2018-02-26T05:53:01.221Z,32
2018-02-26T05:54:01.648Z,36
2018-02-26T05:55:02.239Z,44
2018-02-26T05:56:02.007Z,52
2018-02-26T05:57:02.081Z,56
2018-02-26T05:58:02.691Z,64
2018-02-26T05:59:02.881Z,68
2018-02-26T06:00:21.855Z,80
2018-02-26T06:01:02.630Z,96
2018-02-26T06:02:03.222Z,108
2018-02-26T06:03:03.756Z,120
2018-02-26T06:04:03.424Z,136
2018-02-26T06:05:04.075Z,148
2018-02-26T06:06:03.443Z,164
2018-02-26T06:07:03.796Z,184
2018-02-26T06:08:04.081Z,200
2018-02-26T06:09:04.022Z,212
2018-02-26T06:10:04.054Z,232
2018-02-26T06:11:04.068Z,252
2018-02-26T06:12:04.700Z,272
2018-02-26T06:13:05.009Z,292
2018-02-26T06:14:04.630Z,316
2018-02-26T06:15:04.821Z,336
2018-02-26T06:16:05.272Z,360
2018-02-26T06:17:05.901Z,388
2018-02-26T06:18:06.554Z,412
2018-02-26T06:19:06.513Z,440
2018-02-26T06:20:06.193Z,468
2018-02-26T06:21:06.765Z,488
2018-02-26T06:22:06.727Z,512
2018-02-26T06:23:06.273Z,540
2018-02-26T06:24:06.461Z,568
2018-02-26T06:25:06.717Z,596
2018-02-26T06:26:06.106Z,620
2018-02-26T06:27:07.002Z,652
2018-02-26T06:28:06.679Z,680
2018-02-26T06:29:07.414Z,704
2018-02-26T06:30:07.374Z,732
2018-02-26T06:31:07.294Z,768
2018-02-26T06:32:07.409Z,796
2018-02-26T06:33:07.802Z,824
2018-02-26T06:34:07.582Z,856
2018-02-26T06:35:07.403Z,880
2018-02-26T06:36:07.884Z,896
2018-02-26T06:37:08.161Z,920
2018-02-26T06:38:08.303Z,960
2018-02-26T06:39:07.668Z,992
2018-02-26T06:40:08.882Z,1016
2018-02-26T06:41:08.402Z,1044
2018-02-26T06:42:08.820Z,1064
2018-02-26T06:43:08.378Z,1084
2018-02-26T06:44:08.708Z,1112
2018-02-26T06:45:08.285Z,1132
2018-02-26T06:46:08.990Z,1164
2018-02-26T06:47:09.141Z,1188
2018-02-26T06:48:09.786Z,1208
2018-02-26T06:49:09.858Z,1236
2018-02-26T06:50:09.381Z,1260
2018-02-26T06:51:09.737Z,1288
2018-02-26T06:52:09.709Z,1320
2018-02-26T06:53:10.331Z,1348
2018-02-26T06:54:09.935Z,1364
2018-02-26T06:55:10.036Z,1380
2018-02-26T06:56:10.303Z,1400
2018-02-26T06:57:10.378Z,1424
2018-02-26T06:58:10.398Z,1448
2018-02-26T06:59:10.514Z,1468
2018-02-26T07:00:30.328Z,1492
2018-02-26T07:01:10.620Z,1512
2018-02-26T07:02:10.780Z,1536
2018-02-26T07:03:09.877Z,1552
2018-02-26T07:04:10.793Z,1580
2018-02-26T07:05:10.842Z,1596
2018-02-26T07:06:12.000Z,1612
2018-02-26T07:07:11.745Z,1636
2018-02-26T07:08:11.702Z,1660
2018-02-26T07:09:12.119Z,1700
2018-02-26T07:10:11.589Z,1780
2018-02-26T07:11:11.533Z,1980
2018-02-26T07:12:12.037Z,2276
2018-02-26T07:13:11.836Z,2416
2018-02-26T07:14:12.060Z,2408
2018-02-26T07:15:11.823Z,2296
2018-02-26T07:16:11.800Z,2088
2018-02-26T07:17:12.484Z,2092
2018-02-26T07:18:11.997Z,2028
2018-02-26T07:19:12.014Z,2016
2018-02-26T07:20:12.458Z,2048
2018-02-26T07:21:12.393Z,1992
2018-02-26T07:22:12.649Z,1984
2018-02-26T07:23:12.411Z,1988
2018-02-26T07:24:12.659Z,2004
2018-02-26T07:25:12.870Z,2032
2018-02-26T07:26:12.550Z,2052
2018-02-26T07:27:13.109Z,2068
2018-02-26T07:28:13.276Z,2092
2018-02-26T07:29:13.309Z,2104
2018-02-26T07:30:12.827Z,2012
2018-02-26T07:31:13.009Z,2032
2018-02-26T07:32:13.576Z,2088
2018-02-26T07:33:13.324Z,2164
2018-02-26T07:34:13.780Z,2352
2018-02-26T07:35:13.963Z,2556
2018-02-26T07:36:14.387Z,2676
2018-02-26T07:37:14.812Z,2788
2018-02-26T07:38:14.544Z,2908
2018-02-26T07:39:15.229Z,3076
2018-02-26T07:40:15.323Z,3328
2018-02-26T07:41:15.008Z,3332
2018-02-26T07:42:15.287Z,3444
2018-02-26T07:43:15.393Z,3648
2018-02-26T07:44:15.865Z,4568
2018-02-26T07:45:16.031Z,4144
2018-02-26T07:46:16.433Z,4040
2018-02-26T07:47:16.586Z,3296
2018-02-26T07:48:16.485Z,3616
2018-02-26T07:49:17.323Z,3464
2018-02-26T07:50:17.047Z,3728
2018-02-26T07:51:17.491Z,4640
2018-02-26T07:52:17.643Z,4720
2018-02-26T07:53:18.216Z,5024
2018-02-26T07:54:17.875Z,5600
2018-02-26T07:55:17.605Z,6476
2018-02-26T07:56:18.434Z,6592
2018-02-26T07:57:18.133Z,6164
2018-02-26T07:58:18.471Z,6284
2018-02-26T07:59:18.477Z,5212
2018-02-26T08:00:37.725Z,5556
2018-02-26T08:01:19.078Z,5488
2018-02-26T08:02:18.687Z,5776
2018-02-26T08:03:18.631Z,7032
2018-02-26T08:04:18.602Z,6884
2018-02-26T08:05:18.889Z,5220
2018-02-26T08:06:18.896Z,5724
2018-02-26T08:07:18.693Z,5880
2018-02-26T08:08:19.204Z,5468
2018-02-26T08:09:19.265Z,5688
2018-02-26T08:10:19.015Z,6104
2018-02-26T08:11:19.649Z,5720
2018-02-26T08:12:19.425Z,7380
2018-02-26T08:13:20.054Z,6632
2018-02-26T08:14:20.093Z,4392
2018-02-26T08:15:20.039Z,4280
2018-02-26T08:16:19.423Z,6700
2018-02-26T08:17:19.984Z,3744
2018-02-26T08:18:20.287Z,3484
2018-02-26T08:19:20.462Z,3004
2018-02-26T08:20:20.588Z,6092
2018-02-26T08:21:20.723Z,3216
2018-02-26T08:22:21.409Z,3928
2018-02-26T08:23:21.310Z,3996
2018-02-26T08:24:22.280Z,4176
2018-02-26T08:25:22.275Z,4836
2018-02-26T08:26:22.937Z,5512
2018-02-26T08:27:23.648Z,7416
2018-02-26T08:28:23.243Z,7160
2018-02-26T08:29:23.827Z,7528
2018-02-26T08:30:23.331Z,7844
2018-02-26T08:31:23.353Z,8104
2018-02-26T08:32:23.697Z,8436
2018-02-26T08:33:23.767Z,8104
2018-02-26T08:34:24.407Z,8332
2018-02-26T08:35:24.814Z,7664
2018-02-26T08:36:24.572Z,7868
2018-02-26T08:37:25.175Z,7904
2018-02-26T08:38:24.967Z,7864
2018-02-26T08:39:24.798Z,7632
2018-02-26T08:40:24.836Z,8056
2018-02-26T08:41:24.996Z,8368
2018-02-26T08:42:25.425Z,8716
2018-02-26T08:43:25.656Z,4628
2018-02-26T08:44:25.460Z,7960
2018-02-26T08:45:25.694Z,7460
2018-02-26T08:46:25.505Z,8420
2018-02-26T08:47:25.572Z,9108
2018-02-26T08:48:26.112Z,9304
2018-02-26T08:49:26.251Z,6604
2018-02-26T08:50:25.876Z,7456
2018-02-26T08:51:26.152Z,10400
2018-02-26T08:52:26.067Z,10132
2018-02-26T08:53:26.526Z,7428
2018-02-26T08:54:26.701Z,5056
2018-02-26T08:55:27.227Z,11604
2018-02-26T08:56:27.731Z,11484
2018-02-26T08:57:27.409Z,5040
2018-02-26T08:58:27.531Z,13120
2018-02-26T08:59:27.977Z,11476
2018-02-26T09:00:27.577Z,7924
2018-02-26T09:01:27.847Z,10148
2018-02-26T09:02:27.919Z,10760
2018-02-26T09:03:28.768Z,7040
2018-02-26T09:04:28.757Z,13088
2018-02-26T09:05:28.168Z,13728
2018-02-26T09:06:28.357Z,14336
2018-02-26T09:07:28.685Z,15072
2018-02-26T09:08:28.777Z,15008
2018-02-26T09:09:28.813Z,15840
2018-02-26T09:10:29.264Z,11440
2018-02-26T09:11:29.309Z,9796
2018-02-26T09:12:29.976Z,14752
2018-02-26T09:13:29.880Z,10864
2018-02-26T09:14:30.034Z,11236
2018-02-26T09:15:30.311Z,11584
2018-02-26T09:16:30.126Z,10592
2018-02-26T09:17:30.312Z,12520
2018-02-26T09:18:30.121Z,11088
2018-02-26T09:19:30.514Z,14816
2018-02-26T09:20:30.112Z,15552
2018-02-26T09:21:29.842Z,26976
2018-02-26T09:22:30.523Z,33376
2018-02-26T09:23:30.279Z,21856
2018-02-26T09:24:30.971Z,23456
2018-02-26T09:25:31.199Z,18528
2018-02-26T09:26:31.004Z,18400
2018-02-26T09:27:31.733Z,34144
2018-02-26T09:28:31.942Z,32032
2018-02-26T09:29:32.328Z,19488
2018-02-26T09:30:32.669Z,13504
2018-02-26T09:31:32.207Z,34496
2018-02-26T09:32:32.222Z,10600
2018-02-26T09:33:32.409Z,10892
2018-02-26T09:34:32.889Z,13256
2018-02-26T09:35:33.493Z,13220
2018-02-26T09:36:33.718Z,12844
2018-02-26T09:37:34.165Z,15712
2018-02-26T09:38:34.382Z,23648
2018-02-26T09:39:34.760Z,19936
2018-02-26T09:40:34.672Z,25088
2018-02-26T09:41:34.694Z,15552
2018-02-26T09:42:35.473Z,30784
2018-02-26T09:43:35.690Z,15584
2018-02-26T09:44:35.413Z,32992
2018-02-26T09:45:35.264Z,24032
2018-02-26T09:46:34.925Z,17376
2018-02-26T09:47:35.782Z,20864
2018-02-26T09:48:35.424Z,14720
2018-02-26T09:49:35.810Z,24192
2018-02-26T09:50:35.575Z,32352
2018-02-26T09:51:35.464Z,32320
2018-02-26T09:52:35.761Z,28928
2018-02-26T09:53:35.496Z,27680
2018-02-26T09:54:35.661Z,28544
2018-02-26T09:55:35.248Z,24256
2018-02-26T09:56:35.695Z,36704
2018-02-26T09:57:36.310Z,34368
2018-02-26T09:58:35.942Z,21856
2018-02-26T09:59:36.459Z,13044
2018-02-26T10:00:36.470Z,16224
2018-02-26T10:01:37.063Z,14016
2018-02-26T10:02:37.078Z,9968
2018-02-26T10:03:37.351Z,9368
2018-02-26T10:04:37.422Z,26144
2018-02-26T10:05:37.671Z,38080
2018-02-26T10:06:37.575Z,37472
2018-02-26T10:07:37.462Z,8204
2018-02-26T10:08:37.749Z,8808
2018-02-26T10:09:37.797Z,15968
2018-02-26T10:10:37.803Z,14496
2018-02-26T10:11:38.114Z,12276
2018-02-26T10:12:38.002Z,10792
2018-02-26T10:13:38.627Z,9636
2018-02-26T10:14:37.912Z,9032
2018-02-26T10:15:38.606Z,8276
2018-02-26T10:16:38.255Z,7800
2018-02-26T10:17:37.973Z,7640
2018-02-26T10:18:38.852Z,8276
2018-02-26T10:19:38.902Z,8300
2018-02-26T10:20:38.642Z,9872
2018-02-26T10:21:38.695Z,7888
2018-02-26T10:22:38.738Z,7400
2018-02-26T10:23:39.104Z,8304
2018-02-26T10:24:39.896Z,9008
2018-02-26T10:25:39.363Z,12020
2018-02-26T10:26:39.379Z,11792
2018-02-26T10:27:39.143Z,33280
2018-02-26T10:28:39.448Z,11176
2018-02-26T10:29:39.193Z,15680
2018-02-26T10:30:39.217Z,15648
2018-02-26T10:31:39.247Z,8480
2018-02-26T10:32:39.850Z,6568
2018-02-26T10:33:39.981Z,5808
2018-02-26T10:34:39.761Z,6388
2018-02-26T10:35:40.313Z,6524
2018-02-26T10:36:40.049Z,6640
2018-02-26T10:37:39.849Z,6420
2018-02-26T10:38:39.865Z,6652
2018-02-26T10:39:40.485Z,6968
2018-02-26T10:40:39.918Z,7184
2018-02-26T10:41:40.010Z,7716
2018-02-26T10:42:40.687Z,7848
2018-02-26T10:43:40.702Z,7684
2018-02-26T10:44:40.534Z,10224
2018-02-26T10:45:40.918Z,9036
2018-02-26T10:46:41.225Z,9236
2018-02-26T10:47:41.039Z,8248
2018-02-26T10:48:40.783Z,7368
2018-02-26T10:49:41.366Z,6848
2018-02-26T10:50:41.408Z,6816
2018-02-26T10:51:41.325Z,6316
2018-02-26T10:52:41.425Z,6404
2018-02-26T10:53:41.176Z,6840
2018-02-26T10:54:41.278Z,6504
2018-02-26T10:55:43.036Z,6612
2018-02-26T10:56:42.204Z,8016
2018-02-26T10:57:42.255Z,9304
2018-02-26T10:58:42.286Z,7584
2018-02-26T10:59:42.081Z,8060
2018-02-26T11:00:45.407Z,6468
2018-02-26T11:01:45.511Z,8560
2018-02-26T11:02:44.153Z,8984
2018-02-26T11:03:44.871Z,8516
2018-02-26T11:04:44.801Z,9008
2018-02-26T11:05:44.761Z,8768
2018-02-26T11:06:44.974Z,8060
2018-02-26T11:07:45.032Z,7524
2018-02-26T11:08:44.685Z,7260
2018-02-26T11:09:44.986Z,7944
2018-02-26T11:10:44.894Z,8936
2018-02-26T11:11:45.208Z,9328
2018-02-26T11:12:45.479Z,9284
2018-02-26T11:13:46.069Z,8516
2018-02-26T11:14:45.728Z,7788
2018-02-26T11:15:45.968Z,7972
2018-02-26T11:16:46.392Z,7120
2018-02-26T11:17:46.196Z,6700
2018-02-26T11:18:46.613Z,7064
2018-02-26T11:19:46.626Z,7228
2018-02-26T11:20:46.751Z,8080
2018-02-26T11:21:46.701Z,7484
2018-02-26T11:22:46.415Z,5972
2018-02-26T11:23:46.800Z,5592
2018-02-26T11:24:46.762Z,6356
2018-02-26T11:25:47.160Z,7348
2018-02-26T11:26:47.112Z,7312
2018-02-26T11:27:46.888Z,7480
2018-02-26T11:28:47.013Z,7032
2018-02-26T11:29:47.721Z,6816
2018-02-26T11:30:46.965Z,6308
2018-02-26T11:31:47.461Z,5868
2018-02-26T11:32:48.256Z,6292
2018-02-26T11:33:47.582Z,6548
2018-02-26T11:34:47.972Z,6764
2018-02-26T11:35:47.741Z,6932
2018-02-26T11:36:48.838Z,6452
2018-02-26T11:37:48.077Z,6732
2018-02-26T11:38:47.974Z,6928
2018-02-26T11:39:48.393Z,7224
2018-02-26T11:40:48.416Z,7484
2018-02-26T11:41:48.423Z,7888
2018-02-26T11:42:48.598Z,8108
2018-02-26T11:43:48.586Z,7804
2018-02-26T11:44:48.697Z,7708
2018-02-26T11:45:48.987Z,7720
2018-02-26T11:46:49.626Z,7640
2018-02-26T11:47:49.767Z,7340
2018-02-26T11:48:49.256Z,7296
2018-02-26T11:49:49.787Z,7248
2018-02-26T11:50:50.458Z,7308
2018-02-26T11:51:50.170Z,7312
2018-02-26T11:52:49.984Z,7392
2018-02-26T11:53:49.876Z,7332
2018-02-26T11:54:50.700Z,7120
2018-02-26T11:55:49.907Z,7160
2018-02-26T11:56:50.989Z,7196
2018-02-26T11:57:51.018Z,7148
2018-02-26T11:58:50.883Z,6824
2018-02-26T11:59:50.672Z,7028
2018-02-26T12:00:51.009Z,7048
2018-02-26T12:01:50.924Z,6992
2018-02-26T12:02:51.465Z,6776
2018-02-26T12:03:50.761Z,6624
2018-02-26T12:04:50.949Z,6540
2018-02-26T12:05:51.623Z,6352
2018-02-26T12:06:52.092Z,6236
2018-02-26T12:07:51.767Z,5916
2018-02-26T12:08:51.703Z,5768
2018-02-26T12:09:51.227Z,5884
2018-02-26T12:10:51.887Z,5724
2018-02-26T12:11:52.129Z,6232
2018-02-26T12:12:51.727Z,6388
2018-02-26T12:13:52.225Z,6504
2018-02-26T12:14:51.880Z,6480
2018-02-26T12:15:52.291Z,6432
2018-02-26T12:16:52.706Z,6424
2018-02-26T12:17:53.197Z,6116
2018-02-26T12:18:54.174Z,5760
2018-02-26T12:19:53.898Z,6004
2018-02-26T12:20:54.524Z,5944
2018-02-26T12:21:53.817Z,6420
2018-02-26T12:22:54.219Z,5596
2018-02-26T12:23:53.591Z,5384
2018-02-26T12:24:53.892Z,5956
2018-02-26T12:25:53.609Z,5800
2018-02-26T12:26:54.337Z,4772
2018-02-26T12:27:53.922Z,4632
2018-02-26T12:28:54.201Z,4868
2018-02-26T12:29:54.002Z,4920
2018-02-26T12:30:54.439Z,4780
2018-02-26T12:31:54.895Z,4720
2018-02-26T12:32:54.926Z,4448
2018-02-26T12:33:54.904Z,4788
2018-02-26T12:34:55.870Z,4484
2018-02-26T12:35:55.847Z,4092
2018-02-26T12:36:55.463Z,3984
2018-02-26T12:37:55.306Z,3752
2018-02-26T12:38:55.643Z,3336
2018-02-26T12:39:55.535Z,3100
2018-02-26T12:40:55.421Z,3288
2018-02-26T12:41:55.951Z,3940
2018-02-26T12:42:56.144Z,4740
2018-02-26T12:43:56.267Z,5196
2018-02-26T12:44:56.361Z,4612
2018-02-26T12:45:56.613Z,4648
2018-02-26T12:46:56.583Z,4728
2018-02-26T12:47:56.656Z,5000
2018-02-26T12:48:56.798Z,5356
2018-02-26T12:49:56.626Z,5664
2018-02-26T12:50:56.428Z,5548
2018-02-26T12:51:56.505Z,5460
2018-02-26T12:52:57.019Z,5132
2018-02-26T12:53:56.584Z,4752
2018-02-26T12:54:56.498Z,4340
2018-02-26T12:55:57.294Z,4564
2018-02-26T12:56:57.662Z,4552
2018-02-26T12:57:58.030Z,3780
2018-02-26T12:58:57.754Z,3752
2018-02-26T12:59:57.876Z,3896
2018-02-26T13:00:58.100Z,4320
2018-02-26T13:01:57.829Z,4464
2018-02-26T13:02:57.996Z,4768
2018-02-26T13:03:57.605Z,4920
2018-02-26T13:04:58.427Z,4588
2018-02-26T13:05:57.932Z,4244
2018-02-26T13:06:57.921Z,4340
2018-02-26T13:07:58.014Z,4172
2018-02-26T13:08:57.969Z,4672
2018-02-26T13:09:58.142Z,4392
2018-02-26T13:10:58.828Z,4032
2018-02-26T13:11:59.432Z,3976
2018-02-26T13:12:59.546Z,3992
2018-02-26T13:13:59.792Z,4424
2018-02-26T13:14:59.058Z,4252
2018-02-26T13:15:59.854Z,4360
2018-02-26T13:17:00.221Z,4336
2018-02-26T13:18:00.081Z,4244
2018-02-26T13:19:00.130Z,4392
2018-02-26T13:20:00.353Z,4424
2018-02-26T13:21:00.142Z,4048
2018-02-26T13:22:00.325Z,3992
2018-02-26T13:23:00.159Z,4248
2018-02-26T13:24:00.568Z,4404
2018-02-26T13:25:00.096Z,4584
2018-02-26T13:26:00.095Z,4588
2018-02-26T13:27:00.039Z,4300
2018-02-26T13:28:01.021Z,4252
2018-02-26T13:29:00.719Z,4232
2018-02-26T13:30:00.426Z,4496
2018-02-26T13:31:02.407Z,4188
2018-02-26T13:32:01.106Z,3868
2018-02-26T13:33:01.484Z,3896
2018-02-26T13:34:00.974Z,3732
2018-02-26T13:35:01.404Z,3416
2018-02-26T13:36:01.331Z,3444
2018-02-26T13:37:01.446Z,3136
2018-02-26T13:38:01.129Z,2944
2018-02-26T13:39:03.437Z,2852
2018-02-26T13:40:02.408Z,2812
2018-02-26T13:41:02.870Z,2936
2018-02-26T13:42:03.187Z,3156
2018-02-26T13:43:02.814Z,3640
2018-02-26T13:44:01.638Z,4144
2018-02-26T13:45:01.881Z,3632
2018-02-26T13:46:02.406Z,3464
2018-02-26T13:47:01.622Z,2928
2018-02-26T13:48:02.051Z,3064
2018-02-26T13:49:01.669Z,2948
2018-02-26T13:50:02.348Z,3004
2018-02-26T13:51:02.974Z,2928
2018-02-26T13:52:02.743Z,3056
2018-02-26T13:53:02.008Z,3428
2018-02-26T13:54:02.538Z,3988
2018-02-26T13:55:03.700Z,4004